Time;durP1;ratioP1;P1;durP2;ratioP2;P2;SDS_P1;SDS_P2;PMS_P1;PMS_P2;Temp;Humidity;BMP_temperature;BMP_pressure;BME280_temperature;BME280_humidity;BME280_pressure;Samples;Min_cycle;Max_cycle;Signal;HPM_P1;HPM_P2
2021/12/09 00:02:12;;;;;;;8.15;3.85;;;3.20;99.90;;;;;;5114472;28;20039;-66
2021/12/09 00:04:38;;;;;;;6.28;3.88;;;3.20;99.90;;;;;;5092702;28;20056;-66
2021/12/09 00:07:04;;;;;;;6.57;3.53;;;3.20;99.90;;;;;;5094026;28;20052;-66
2021/12/09 00:09:30;;;;;;;6.38;3.80;;;3.60;99.90;;;;;;5093674;28;20130;-66
2021/12/09 00:11:57;;;;;;;7.72;4.00;;;3.90;99.90;;;;;;5093899;28;20043;-66
2021/12/09 00:14:29;;;;;;;5.78;3.80;;;3.20;99.90;;;;;;5093936;28;20126;-66
2021/12/09 00:16:58;;;;;;;6.97;3.70;;;3.20;99.90;;;;;;5094472;28;20079;-66
2021/12/09 00:19:25;;;;;;;5.35;3.70;;;3.50;99.90;;;;;;5093871;28;20073;-66
2021/12/09 00:21:51;;;;;;;6.15;3.47;;;3.80;99.90;;;;;;5093836;28;20044;-66
2021/12/09 00:24:17;;;;;;;7.72;3.90;;;3.10;99.90;;;;;;5093823;28;20044;-66
2021/12/09 00:26:44;;;;;;;8.10;3.90;;;2.80;99.90;;;;;;5093825;28;20438;-66
2021/12/09 00:29:11;;;;;;;5.03;3.28;;;2.60;99.90;;;;;;5093836;28;20404;-66
2021/12/09 00:31:37;;;;;;;6.70;3.25;;;3.10;99.90;;;;;;5092579;28;20055;-66
2021/12/09 00:34:03;;;;;;;6.07;3.28;;;3.60;99.90;;;;;;5093804;28;20040;-66
2021/12/09 00:36:38;;;;;;;6.15;3.13;;;4.80;99.90;;;;;;5093741;28;20400;-66
2021/12/09 00:39:07;;;;;;;6.40;4.00;;;3.00;99.90;;;;;;5094310;28;20042;-66
2021/12/09 00:41:33;;;;;;;5.45;3.17;;;2.90;99.90;;;;;;5093602;28;20055;-66
2021/12/09 00:43:59;;;;;;;7.10;3.85;;;2.90;99.90;;;;;;5093673;28;20079;-66
2021/12/09 00:46:25;;;;;;;5.85;3.78;;;2.40;99.90;;;;;;5093558;28;20425;-66
2021/12/09 00:48:51;;;;;;;6.88;3.55;;;2.90;99.90;;;;;;5092406;28;20492;-66
2021/12/09 00:51:17;;;;;;;5.63;3.55;;;2.90;99.90;;;;;;5093631;28;20425;-66
2021/12/09 00:53:43;;;;;;;10.57;4.03;;;3.20;99.90;;;;;;5093464;28;20048;-66
2021/12/09 00:56:11;;;;;;;6.90;3.65;;;4.00;99.90;;;;;;5093540;28;20040;-66
2021/12/09 00:58:38;;;;;;;6.93;3.38;;;2.90;99.90;;;;;;5093833;28;20082;-66
2021/12/09 01:01:06;;;;;;;6.55;3.95;;;2.90;99.90;;;;;;5096576;28;20063;-66
2021/12/09 01:03:33;;;;;;;7.55;3.28;;;2.50;99.90;;;;;;5101051;28;20063;-66
2021/12/09 01:05:59;;;;;;;6.28;3.45;;;2.80;99.90;;;;;;5099614;28;20047;-66
2021/12/09 01:08:25;;;;;;;6.20;3.72;;;4.20;99.90;;;;;;5117745;28;20122;-66
2021/12/09 01:10:51;;;;;;;6.10;3.88;;;2.70;99.90;;;;;;5117673;28;20192;-66
2021/12/09 01:13:17;;;;;;;6.25;3.83;;;2.80;99.90;;;;;;5117561;28;20391;-66
2021/12/09 01:15:42;;;;;;;8.27;3.83;;;3.90;99.90;;;;;;5099514;28;20463;-66
2021/12/09 01:18:08;;;;;;;7.85;3.65;;;2.30;99.90;;;;;;5117610;28;20109;-66
2021/12/09 01:20:34;;;;;;;6.47;4.38;;;2.50;99.90;;;;;;5117532;28;20047;-66
2021/12/09 01:23:02;;;;;;;7.35;4.15;;;4.20;99.90;;;;;;5117436;28;20043;-66
2021/12/09 01:25:36;;;;;;;7.70;5.13;;;2.70;99.90;;;;;;5117414;28;20130;-66
2021/12/09 01:28:04;;;;;;;7.53;4.30;;;3.10;99.90;;;;;;5117977;28;20044;-66
2021/12/09 01:30:30;;;;;;;9.40;4.43;;;3.30;99.90;;;;;;5117591;28;20048;-66
2021/12/09 01:32:56;;;;;;;7.72;4.00;;;3.20;99.90;;;;;;5117716;28;20448;-66
2021/12/09 01:35:28;;;;;;;6.70;3.78;;;3.00;99.90;;;;;;5099247;28;20399;-66
2021/12/09 01:38:01;;;;;;;8.32;4.28;;;2.70;99.90;;;;;;5118031;28;20139;-66
2021/12/09 01:40:28;;;;;;;6.50;4.57;;;3.10;99.90;;;;;;5117029;28;20047;-66
2021/12/09 01:42:56;;;;;;;6.00;4.55;;;3.20;99.90;;;;;;5116945;28;20047;-66
2021/12/09 01:45:21;;;;;;;11.27;4.68;;;2.70;99.90;;;;;;5116900;28;20047;-66
2021/12/09 01:47:48;;;;;;;7.05;4.82;;;2.70;99.90;;;;;;5116920;28;20040;-66
2021/12/09 01:50:15;;;;;;;11.35;5.10;;;2.70;99.90;;;;;;5116921;28;20048;-66
2021/12/09 01:52:42;;;;;;;8.40;5.22;;;4.20;99.90;;;;;;5116842;28;20048;-66
2021/12/09 01:55:09;;;;;;;9.07;4.82;;;3.00;99.90;;;;;;5116810;28;20047;-66
2021/12/09 01:57:35;;;;;;;8.82;4.50;;;2.70;99.90;;;;;;5081894;28;20137;-66
2021/12/09 02:00:07;;;;;;;7.50;4.82;;;2.70;99.90;;;;;;5116697;28;20035;-66
2021/12/09 02:02:33;;;;;;;8.32;5.00;;;2.60;99.90;;;;;;5117022;28;20036;-66
2021/12/09 02:04:59;;;;;;;8.25;5.00;;;3.50;99.90;;;;;;5098001;28;20526;-66
2021/12/09 02:07:24;;;;;;;8.05;4.88;;;3.30;99.90;;;;;;5116574;28;20048;-66
2021/12/09 02:09:50;;;;;;;7.40;4.88;;;2.60;99.90;;;;;;5098289;28;20051;-66
2021/12/09 02:12:16;;;;;;;7.63;4.30;;;2.20;99.90;;;;;;5116240;28;20043;-66
2021/12/09 02:14:43;;;;;;;7.57;4.88;;;2.60;99.90;;;;;;5116457;28;20129;-66
2021/12/09 02:17:11;;;;;;;8.68;5.28;;;2.60;99.90;;;;;;5116010;28;20503;-66
2021/12/09 02:19:44;;;;;;;7.80;4.75;;;3.00;99.90;;;;;;5116957;28;20047;-66
2021/12/09 02:22:15;;;;;;;9.02;4.55;;;2.60;99.90;;;;;;5116946;28;20052;-66
2021/12/09 02:24:41;;;;;;;9.55;5.22;;;4.10;99.90;;;;;;5116285;28;20043;-66
2021/12/09 02:27:08;;;;;;;9.25;5.00;;;2.20;99.90;;;;;;5116276;28;20039;-66
2021/12/09 02:29:34;;;;;;;8.32;5.47;;;2.40;99.90;;;;;;5097974;28;20399;-66
2021/12/09 02:32:01;;;;;;;7.35;4.88;;;2.30;99.90;;;;;;5098115;28;20043;-66
2021/12/09 02:34:28;;;;;;;7.78;4.78;;;2.50;99.90;;;;;;5098198;28;20040;-66
2021/12/09 02:36:54;;;;;;;8.15;4.93;;;2.30;99.90;;;;;;5116646;28;20050;-66
2021/12/09 02:39:20;;;;;;;9.98;5.53;;;3.60;99.90;;;;;;5116067;28;20056;-66
2021/12/09 02:41:47;;;;;;;8.90;4.88;;;2.40;99.90;;;;;;5097978;28;20059;-67
2021/12/09 02:44:17;;;;;;;8.57;5.18;;;3.00;99.90;;;;;;5115925;28;20384;-66
2021/12/09 02:46:44;;;;;;;7.60;5.38;;;2.10;99.90;;;;;;5116567;28;20395;-66
2021/12/09 02:49:17;;;;;;;7.28;5.13;;;3.10;99.90;;;;;;5115815;28;20086;-66
2021/12/09 02:51:44;;;;;;;9.98;5.43;;;2.90;99.90;;;;;;5097494;28;20047;-66
2021/12/09 02:54:12;;;;;;;10.63;6.22;;;2.50;99.90;;;;;;5097947;28;20056;-66
2021/12/09 02:56:38;;;;;;;8.60;5.60;;;2.60;99.90;;;;;;5115718;28;20083;-66
2021/12/09 02:59:05;;;;;;;8.57;4.90;;;2.40;99.90;;;;;;5116194;28;20055;-66
2021/12/09 03:01:34;;;;;;;9.95;6.20;;;2.50;99.90;;;;;;5116085;28;20130;-66
2021/12/09 03:04:02;;;;;;;9.15;5.90;;;2.40;99.90;;;;;;5115030;28;20113;-66
2021/12/09 03:06:42;;;;;;;9.93;5.88;;;2.40;99.90;;;;;;5064421;28;20135;-66
2021/12/09 03:09:14;;;;;;;9.45;6.28;;;2.00;99.90;;;;;;5098050;28;20345;-66
2021/12/09 03:11:43;;;;;;;9.25;5.80;;;2.30;99.90;;;;;;5115280;28;20134;-66
2021/12/09 03:14:09;;;;;;;7.65;5.47;;;2.80;99.90;;;;;;5115345;28;20055;-66
2021/12/09 03:16:35;;;;;;;8.75;5.70;;;3.30;99.90;;;;;;5115968;28;20386;-66
2021/12/09 03:19:06;;;;;;;10.88;5.75;;;2.50;99.90;;;;;;5097203;28;20059;-66
2021/12/09 03:21:35;;;;;;;8.95;6.15;;;2.30;99.90;;;;;;5114819;28;20043;-66
2021/12/09 03:24:02;;;;;;;9.52;5.70;;;4.70;99.90;;;;;;5115094;28;20054;-66
2021/12/09 03:26:33;;;;;;;8.77;6.40;;;2.30;99.90;;;;;;5115065;28;20051;-66
2021/12/09 03:29:03;;;;;;;9.13;5.85;;;2.80;99.90;;;;;;5096990;28;20051;-66
2021/12/09 03:31:29;;;;;;;11.00;5.85;;;1.90;99.90;;;;;;5114978;28;20043;-66
2021/12/09 03:33:55;;;;;;;8.30;5.53;;;3.00;99.90;;;;;;5096718;28;20085;-66
2021/12/09 03:36:21;;;;;;;8.73;5.85;;;4.00;99.90;;;;;;5063470;28;20086;-66
2021/12/09 03:38:46;;;;;;;8.65;5.95;;;2.60;99.90;;;;;;5096905;28;20044;-66
2021/12/09 03:41:12;;;;;;;9.45;6.55;;;2.30;99.90;;;;;;5114789;28;20505;-66
2021/12/09 03:43:38;;;;;;;10.38;6.45;;;3.10;99.90;;;;;;5080203;28;20072;-66
2021/12/09 03:46:04;;;;;;;8.95;5.22;;;2.00;99.90;;;;;;5096477;28;20044;-66
2021/12/09 03:48:31;;;;;;;9.70;6.25;;;2.30;99.90;;;;;;5115268;28;20040;-66
2021/12/09 03:50:57;;;;;;;10.95;6.30;;;2.20;99.90;;;;;;5114641;28;20088;-66
2021/12/09 03:53:24;;;;;;;8.52;6.65;;;2.20;99.90;;;;;;5114519;28;20085;-66
2021/12/09 03:55:51;;;;;;;11.45;6.22;;;2.10;99.90;;;;;;5114590;28;20051;-66
2021/12/09 03:58:17;;;;;;;9.30;6.75;;;2.40;99.90;;;;;;5114514;28;20048;-66
2021/12/09 04:00:43;;;;;;;11.18;6.78;;;2.60;99.90;;;;;;5115029;28;20073;-66
2021/12/09 04:03:10;;;;;;;10.18;6.80;;;2.20;99.90;;;;;;5114224;28;20043;-66
2021/12/09 04:05:36;;;;;;;11.32;7.15;;;2.20;99.90;;;;;;5096431;28;20060;-66
2021/12/09 04:08:03;;;;;;;9.95;6.25;;;2.20;99.90;;;;;;5114355;28;20090;-66
2021/12/09 04:10:32;;;;;;;10.30;6.90;;;2.20;99.90;;;;;;5096414;28;20059;-66
2021/12/09 04:12:58;;;;;;;10.00;6.75;;;3.20;99.90;;;;;;5095874;28;20035;-66
2021/12/09 04:15:24;;;;;;;10.45;6.60;;;2.20;99.90;;;;;;5114258;28;20040;-66
2021/12/09 04:17:50;;;;;;;14.50;7.50;;;3.80;99.90;;;;;;5096210;28;20057;-66
2021/12/09 04:20:16;;;;;;;9.13;6.53;;;2.00;99.90;;;;;;5115126;28;20473;-66
2021/12/09 04:22:48;;;;;;;11.00;7.22;;;3.70;99.90;;;;;;5114244;28;20046;-66
2021/12/09 04:25:22;;;;;;;11.00;7.15;;;2.70;99.90;;;;;;5114787;28;20040;-66
2021/12/09 04:27:51;;;;;;;10.88;7.32;;;2.20;99.90;;;;;;5096215;28;20043;-67
2021/12/09 04:30:17;;;;;;;9.57;6.40;;;2.20;99.90;;;;;;5114158;28;20051;-66
2021/12/09 04:32:44;;;;;;;11.82;7.47;;;1.90;99.90;;;;;;5079259;28;20075;-66
2021/12/09 04:35:11;;;;;;;9.40;6.88;;;2.70;99.90;;;;;;5099976;28;20051;-66
2021/12/09 04:37:38;;;;;;;11.25;7.32;;;2.20;99.90;;;;;;5118934;28;20122;-66
2021/12/09 04:40:06;;;;;;;9.85;6.95;;;2.40;99.90;;;;;;5118312;28;20052;-66
2021/12/09 04:42:32;;;;;;;10.68;7.50;;;2.20;99.90;;;;;;5118247;28;20402;-66
2021/12/09 04:44:58;;;;;;;10.60;7.57;;;3.20;99.90;;;;;;5117909;28;20130;-66
2021/12/09 04:47:24;;;;;;;11.55;7.20;;;2.00;99.90;;;;;;5099905;28;20046;-66
2021/12/09 04:49:49;;;;;;;11.15;6.93;;;2.00;99.90;;;;;;5118133;28;20130;-66
2021/12/09 04:52:15;;;;;;;10.43;6.90;;;3.00;99.90;;;;;;5099508;28;20040;-66
2021/12/09 04:54:41;;;;;;;9.13;6.50;;;2.50;99.90;;;;;;5118877;28;20040;-66
2021/12/09 04:57:11;;;;;;;12.40;6.65;;;2.20;99.90;;;;;;5117988;28;20046;-66
2021/12/09 04:59:37;;;;;;;11.27;6.88;;;2.20;99.90;;;;;;5117908;28;20137;-66
2021/12/09 05:02:03;;;;;;;11.60;6.60;;;2.80;99.90;;;;;;5117893;28;20123;-66
2021/12/09 05:04:29;;;;;;;12.57;8.00;;;2.10;99.90;;;;;;5099514;28;20051;-66
2021/12/09 05:06:55;;;;;;;11.45;7.32;;;2.10;99.90;;;;;;5118635;28;20050;-67
2021/12/09 05:09:21;;;;;;;12.43;7.32;;;2.10;99.90;;;;;;5117765;28;20101;-66
2021/12/09 05:14:13;;;;;;;9.95;6.65;;;2.40;99.90;;;;;;5117629;28;20510;-67
2021/12/09 05:16:39;;;;;;;12.43;7.47;;;2.90;99.90;;;;;;5117541;28;20059;-66
2021/12/09 05:19:05;;;;;;;12.50;7.20;;;2.10;99.90;;;;;;5117575;28;20043;-66
2021/12/09 05:21:39;;;;;;;10.25;6.97;;;2.10;99.90;;;;;;5117451;28;20044;-66
2021/12/09 05:24:10;;;;;;;13.90;7.85;;;2.20;99.90;;;;;;5117829;28;20039;-66
2021/12/09 05:26:48;;;;;;;12.63;7.90;;;3.10;99.90;;;;;;5117768;28;20048;-66
2021/12/09 05:29:15;;;;;;;10.45;7.65;;;3.90;99.90;;;;;;5117406;28;20126;-66
2021/12/09 05:34:26;;;;;;;11.18;7.13;;;2.20;99.90;;;;;;5117318;28;20166;-66
2021/12/09 05:36:52;;;;;;;11.20;7.50;;;2.20;99.90;;;;;;5099145;28;20088;-66
2021/12/09 05:39:18;;;;;;;11.95;7.80;;;1.80;99.90;;;;;;5100017;28;20051;-66
2021/12/09 05:41:45;;;;;;;11.30;7.60;;;2.40;99.90;;;;;;5117134;28;20437;-66
2021/12/09 05:44:12;;;;;;;11.85;8.13;;;2.20;99.90;;;;;;5098916;28;20044;-66
2021/12/09 05:46:44;;;;;;;12.20;8.07;;;4.60;99.90;;;;;;5116695;28;20043;-66
2021/12/09 05:49:11;;;;;;;12.20;6.88;;;2.20;99.90;;;;;;5117310;28;20122;-66
2021/12/09 05:51:39;;;;;;;11.50;7.88;;;3.00;99.90;;;;;;5116941;28;20130;-67
2021/12/09 05:54:05;;;;;;;11.55;7.82;;;1.80;99.90;;;;;;5116844;28;20065;-67
2021/12/09 05:56:31;;;;;;;12.43;7.47;;;3.50;99.90;;;;;;5116824;28;20058;-66
2021/12/09 05:58:59;;;;;;;12.98;7.50;;;1.90;99.90;;;;;;5116761;28;20047;-66
2021/12/09 06:01:25;;;;;;;14.20;8.05;;;2.90;99.90;;;;;;5098796;28;20057;-66
2021/12/09 06:03:50;;;;;;;11.70;7.68;;;2.20;99.90;;;;;;5116364;28;20047;-66
2021/12/09 06:06:17;;;;;;;10.85;7.93;;;2.20;99.90;;;;;;5116342;28;20047;-66
2021/12/09 06:08:43;;;;;;;12.00;7.65;;;1.90;99.90;;;;;;5117505;28;20043;-66
2021/12/09 06:11:11;;;;;;;13.10;8.07;;;2.70;99.90;;;;;;5116613;28;20421;-66
2021/12/09 06:13:37;;;;;;;12.70;7.75;;;1.90;99.90;;;;;;5116713;28;20048;-66
2021/12/09 06:16:08;;;;;;;12.15;8.27;;;2.90;99.90;;;;;;5116450;28;20082;-66
2021/12/09 06:18:34;;;;;;;12.20;8.02;;;2.70;99.90;;;;;;5116976;28;20089;-66
2021/12/09 06:21:00;;;;;;;13.25;8.13;;;2.30;99.90;;;;;;5116022;28;20514;-66
2021/12/09 06:23:25;;;;;;;13.43;8.43;;;1.70;99.90;;;;;;5116302;28;20039;-66
2021/12/09 06:25:52;;;;;;;13.10;9.07;;;2.90;99.90;;;;;;5116530;28;20047;-66
2021/12/09 06:28:19;;;;;;;12.07;8.05;;;2.50;99.90;;;;;;5116436;28;20407;-66
2021/12/09 06:30:46;;;;;;;9.98;7.57;;;3.40;99.90;;;;;;5116146;28;20044;-66
2021/12/09 06:33:12;;;;;;;13.13;8.60;;;3.30;99.90;;;;;;5116027;28;20043;-66
2021/12/09 06:35:38;;;;;;;14.82;8.27;;;3.90;99.90;;;;;;5116161;28;20047;-66
2021/12/09 06:38:05;;;;;;;14.02;8.88;;;2.20;99.90;;;;;;5098699;28;20046;-66
2021/12/09 06:40:31;;;;;;;15.50;9.00;;;2.40;99.90;;;;;;5115995;28;20083;-66
2021/12/09 06:42:57;;;;;;;14.57;7.93;;;2.10;99.90;;;;;;5116445;28;20071;-66
2021/12/09 06:45:24;;;;;;;14.55;8.10;;;2.50;99.90;;;;;;5116344;28;20051;-66
2021/12/09 06:47:50;;;;;;;11.32;8.52;;;2.50;99.90;;;;;;5115688;28;20193;-66
2021/12/09 06:50:19;;;;;;;12.80;8.38;;;2.00;99.90;;;;;;5115852;28;20046;-66
2021/12/09 06:52:45;;;;;;;14.40;9.15;;;2.80;99.90;;;;;;5115755;28;20148;-66
2021/12/09 06:55:14;;;;;;;11.82;9.02;;;3.90;99.90;;;;;;5115690;28;20052;-66
2021/12/09 06:57:43;;;;;;;12.23;8.40;;;2.00;99.90;;;;;;5115441;28;20053;-66
2021/12/09 07:00:12;;;;;;;16.17;10.10;;;3.50;99.90;;;;;;5115871;28;20039;-66
2021/12/09 07:02:38;;;;;;;12.25;8.88;;;2.00;99.90;;;;;;5115565;28;20109;-66
2021/12/09 07:05:05;;;;;;;13.02;9.07;;;2.60;99.90;;;;;;5116573;28;20055;-66
2021/12/09 07:07:31;;;;;;;13.80;9.68;;;2.00;99.90;;;;;;5115451;28;20051;-66
2021/12/09 07:09:57;;;;;;;15.77;10.02;;;2.60;99.90;;;;;;5116276;28;20057;-67
2021/12/09 07:12:23;;;;;;;12.90;9.07;;;2.00;99.90;;;;;;5063920;28;20044;-66
2021/12/09 07:14:49;;;;;;;15.00;9.65;;;2.10;99.90;;;;;;5115363;28;20506;-66
2021/12/09 07:17:16;;;;;;;15.68;9.63;;;2.60;99.90;;;;;;5115215;28;20487;-66
2021/12/09 07:19:42;;;;;;;12.23;9.05;;;2.10;99.90;;;;;;5115732;28;20053;-66
2021/12/09 07:22:08;;;;;;;13.75;8.98;;;2.00;99.90;;;;;;5115187;28;20040;-67
2021/12/09 07:24:34;;;;;;;14.20;9.73;;;2.00;99.90;;;;;;5097747;28;20051;-66
2021/12/09 07:27:00;;;;;;;13.73;8.80;;;2.70;99.90;;;;;;5097105;28;20058;-66
2021/12/09 07:29:29;;;;;;;15.48;8.40;;;2.80;99.90;;;;;;5097134;28;20502;-66
2021/12/09 07:31:55;;;;;;;13.50;8.93;;;2.00;99.90;;;;;;5115455;28;20133;-66
2021/12/09 07:34:21;;;;;;;13.20;9.27;;;2.80;99.90;;;;;;5114699;28;20496;-66
2021/12/09 07:36:47;;;;;;;14.75;8.73;;;2.50;99.90;;;;;;5114902;28;20044;-66
2021/12/09 07:39:13;;;;;;;14.65;9.30;;;1.90;99.90;;;;;;5114844;28;20086;-66
2021/12/09 07:41:39;;;;;;;13.55;9.25;;;3.50;99.90;;;;;;5115621;28;20079;-66
2021/12/09 07:44:05;;;;;;;14.93;8.85;;;2.40;99.90;;;;;;5114750;28;20402;-66
2021/12/09 07:46:35;;;;;;;15.73;9.40;;;1.90;99.90;;;;;;5114987;28;20120;-66
2021/12/09 07:49:01;;;;;;;12.30;7.90;;;2.20;99.90;;;;;;5114742;28;20092;-66
2021/12/09 07:51:26;;;;;;;13.32;8.52;;;1.80;99.90;;;;;;5114617;28;20495;-66
2021/12/09 07:53:52;;;;;;;11.77;8.45;;;2.70;99.90;;;;;;5114514;28;20069;-66
2021/12/09 07:56:19;;;;;;;11.70;9.20;;;1.80;99.90;;;;;;5096430;28;20096;-67
2021/12/09 07:58:45;;;;;;;17.73;8.77;;;1.90;99.90;;;;;;5114565;28;20495;-67
2021/12/09 08:01:11;;;;;;;13.20;8.48;;;1.70;99.90;;;;;;5114507;28;20052;-66
2021/12/09 08:03:37;;;;;;;14.73;8.98;;;1.90;99.90;;;;;;5114212;28;20056;-66
2021/12/09 08:06:04;;;;;;;17.13;9.05;;;1.90;99.90;;;;;;5115238;28;20059;-66
2021/12/09 08:08:29;;;;;;;10.93;8.15;;;1.90;99.90;;;;;;5114390;28;20052;-66
2021/12/09 08:10:56;;;;;;;14.73;9.55;;;2.10;99.90;;;;;;5114855;28;20367;-66
2021/12/09 08:13:23;;;;;;;17.80;10.48;;;2.60;99.90;;;;;;5114147;28;20051;-67
2021/12/09 08:15:50;;;;;;;13.07;9.23;;;1.90;99.90;;;;;;5114203;28;20051;-66
2021/12/09 08:20:47;;;;;;;13.43;8.63;;;2.60;99.90;;;;;;5114657;28;20055;-66
2021/12/09 08:23:13;;;;;;;12.07;8.68;;;1.70;99.90;;;;;;5114179;28;20035;-67
2021/12/09 08:25:39;;;;;;;12.40;8.23;;;1.60;99.90;;;;;;5114740;28;20039;-66
2021/12/09 08:28:05;;;;;;;13.65;8.80;;;2.00;99.90;;;;;;5114186;28;20124;-66
2021/12/09 08:30:31;;;;;;;15.18;8.48;;;2.00;99.90;;;;;;5114137;28;20047;-67
2021/12/09 08:32:57;;;;;;;12.15;7.85;;;1.80;99.90;;;;;;5096312;28;20475;-66
2021/12/09 08:35:23;;;;;;;12.05;8.50;;;2.00;99.90;;;;;;5114077;28;20043;-67
2021/12/09 08:37:51;;;;;;;12.68;8.70;;;2.60;99.90;;;;;;5114055;28;20074;-66
2021/12/09 08:40:18;;;;;;;13.38;8.35;;;2.00;99.90;;;;;;5114070;28;20376;-66
2021/12/09 08:42:44;;;;;;;11.05;8.60;;;2.70;99.90;;;;;;5114036;28;20039;-66
2021/12/09 08:45:11;;;;;;;10.75;7.18;;;1.90;99.90;;;;;;5114054;28;20399;-66
2021/12/09 08:47:39;;;;;;;13.77;8.20;;;2.00;99.90;;;;;;5113941;28;20441;-67
2021/12/09 08:50:07;;;;;;;14.73;8.27;;;2.60;99.90;;;;;;5095785;28;20087;-67
2021/12/09 08:52:33;;;;;;;11.45;8.70;;;2.00;99.90;;;;;;5113833;28;20123;-67
2021/12/09 08:54:59;;;;;;;12.40;7.53;;;2.00;99.90;;;;;;5113935;28;20107;-66
2021/12/09 08:57:25;;;;;;;14.60;9.00;;;2.50;99.90;;;;;;5113920;28;20127;-68
2021/12/09 08:59:51;;;;;;;13.80;7.82;;;2.20;99.90;;;;;;5095613;28;20047;-67
2021/12/09 09:02:17;;;;;;;16.02;7.75;;;2.80;99.90;;;;;;5116758;28;20387;-67
2021/12/09 09:04:43;;;;;;;15.05;8.23;;;2.10;99.90;;;;;;5094589;28;20488;-66
2021/12/09 09:07:09;;;;;;;14.02;7.70;;;3.20;99.90;;;;;;5093390;28;20059;-66
2021/12/09 09:09:37;;;;;;;12.82;8.57;;;2.10;99.90;;;;;;5093338;28;20094;-66
2021/12/09 09:12:06;;;;;;;12.85;8.13;;;2.10;99.90;;;;;;5093254;28;20127;-68
2021/12/09 09:14:32;;;;;;;15.70;8.70;;;2.20;99.90;;;;;;5092593;28;20468;-68
2021/12/09 09:16:58;;;;;;;14.95;8.07;;;2.90;99.90;;;;;;5094052;28;20097;-67
2021/12/09 09:19:24;;;;;;;15.10;8.65;;;2.30;99.90;;;;;;5093327;28;20484;-67
2021/12/09 09:21:50;;;;;;;13.95;7.72;;;2.60;99.90;;;;;;5097878;28;20105;-68
2021/12/09 09:24:16;;;;;;;16.73;7.90;;;3.90;99.90;;;;;;5096381;28;20433;-68
2021/12/09 09:26:42;;;;;;;12.23;8.10;;;3.20;99.90;;;;;;5096358;28;20048;-68
2021/12/09 09:29:08;;;;;;;12.75;7.32;;;2.10;99.90;;;;;;5096839;28;20048;-68
2021/12/09 09:31:34;;;;;;;12.57;7.50;;;2.30;99.90;;;;;;5096885;28;20087;-68
2021/12/09 09:34:04;;;;;;;13.02;7.30;;;2.00;99.90;;;;;;5096699;28;20051;-68
2021/12/09 09:36:31;;;;;;;11.30;7.47;;;2.40;99.90;;;;;;5094315;28;20043;-66
2021/12/09 09:39:06;;;;;;;8.57;6.78;;;2.40;99.90;;;;;;5094160;28;20040;-66
2021/12/09 09:41:34;;;;;;;15.27;8.82;;;3.10;99.90;;;;;;5093969;28;20114;-66
2021/12/09 09:44:15;;;;;;;14.23;8.23;;;3.20;99.90;;;;;;5094125;28;20484;-67
2021/12/09 09:46:41;;;;;;;12.77;7.40;;;2.80;99.90;;;;;;5093896;28;20032;-66
2021/12/09 09:49:07;;;;;;;11.23;7.00;;;2.50;99.90;;;;;;5093557;28;20080;-67
2021/12/09 09:51:35;;;;;;;12.20;7.15;;;2.80;99.90;;;;;;5093544;28;20088;-68
2021/12/09 09:54:02;;;;;;;13.35;7.13;;;2.80;99.90;;;;;;5092391;28;20044;-68
2021/12/09 09:56:28;;;;;;;11.75;6.63;;;2.60;99.90;;;;;;5096955;28;20048;-66
2021/12/09 09:58:57;;;;;;;12.57;6.82;;;3.50;99.90;;;;;;5095918;28;20051;-65
2021/12/09 10:01:25;;;;;;;8.98;6.03;;;4.70;99.90;;;;;;5093352;28;20044;-66
2021/12/09 10:03:58;;;;;;;12.10;6.55;;;3.30;99.90;;;;;;5097101;28;20066;-66
2021/12/09 10:06:25;;;;;;;11.15;6.68;;;2.70;99.90;;;;;;5116977;28;20047;-66
2021/12/09 10:08:51;;;;;;;12.90;6.20;;;3.60;99.90;;;;;;5116034;28;20086;-65
2021/12/09 10:11:17;;;;;;;13.75;6.85;;;3.70;99.90;;;;;;5116039;28;20079;-65
2021/12/09 10:13:44;;;;;;;10.93;6.63;;;2.80;99.90;;;;;;5113179;28;20028;-65
2021/12/09 10:16:19;;;;;;;8.73;6.35;;;3.00;99.90;;;;;;5113989;28;20080;-65
2021/12/09 10:18:47;;;;;;;12.15;6.78;;;2.80;99.90;;;;;;5095270;28;20043;-66
2021/12/09 10:21:21;;;;;;;10.25;6.30;;;2.80;99.90;;;;;;5095062;28;20051;-65
2021/12/09 10:23:50;;;;;;;14.15;7.55;;;1.70;99.90;;;;;;5113081;28;20048;-66
2021/12/09 10:26:26;;;;;;;14.65;7.40;;;3.20;99.90;;;;;;5113103;28;20043;-68
2021/12/09 10:28:57;;;;;;;8.77;6.18;;;2.90;99.90;;;;;;5113025;28;20040;-68
2021/12/09 10:31:30;;;;;;;12.45;6.45;;;2.90;99.90;;;;;;5112405;28;20040;-65
2021/12/09 10:34:26;;;;;;;9.57;6.35;;;2.90;99.90;;;;;;5112750;28;20040;-65
2021/12/09 10:36:54;;;;;;;8.20;5.70;;;3.00;99.90;;;;;;5113449;28;20426;-66
2021/12/09 10:39:55;;;;;;;8.30;5.88;;;3.00;99.90;;;;;;5112982;28;20118;-65
2021/12/09 10:42:25;;;;;;;13.43;6.82;;;3.00;99.90;;;;;;5067090;28;20051;-65
2021/12/09 10:44:55;;;;;;;12.85;6.55;;;3.10;99.90;;;;;;5113339;28;20051;-65
2021/12/09 10:47:54;;;;;;;10.93;6.35;;;3.20;99.90;;;;;;5112490;28;20075;-65
2021/12/09 10:55:53;;;;;;;9.30;5.55;;;4.10;99.90;;;;;;5112647;28;20044;-66
2021/12/09 10:58:26;;;;;;;10.07;5.70;;;3.20;99.90;;;;;;5112699;28;20047;-65
2021/12/09 11:00:55;;;;;;;9.50;5.85;;;3.30;99.90;;;;;;5112251;28;20430;-65
2021/12/09 11:03:29;;;;;;;8.57;5.20;;;3.30;99.90;;;;;;5112352;28;20039;-65
2021/12/09 11:05:55;;;;;;;9.70;5.13;;;4.60;99.90;;;;;;5112038;28;20090;-65
2021/12/09 11:08:53;;;;;;;8.98;5.47;;;3.40;99.90;;;;;;5112128;28;20077;-65
2021/12/09 11:11:33;;;;;;;10.77;5.70;;;3.50;99.90;;;;;;5088908;28;20073;-65
2021/12/09 11:14:04;;;;;;;10.07;6.00;;;3.50;99.90;;;;;;5113128;28;20040;-65
2021/12/09 11:16:40;;;;;;;13.52;6.53;;;3.60;99.90;;;;;;5095440;28;20051;-65
2021/12/09 11:19:13;;;;;;;9.75;5.38;;;3.50;99.90;;;;;;5114849;28;20039;-65
2021/12/09 11:21:59;;;;;;;9.60;5.10;;;3.60;99.90;;;;;;5115807;28;20043;-65
2021/12/09 11:24:30;;;;;;;8.68;4.78;;;3.80;99.90;;;;;;5096714;28;20051;-66
2021/12/09 11:26:58;;;;;;;10.93;5.38;;;3.80;99.90;;;;;;5113345;28;20052;-65
2021/12/09 11:29:32;;;;;;;8.52;5.35;;;3.80;99.90;;;;;;5114788;28;20122;-66
2021/12/09 11:34:38;;;;;;;10.55;4.90;;;3.70;99.90;;;;;;5096651;28;20397;-65
2021/12/09 11:37:19;;;;;;;9.90;5.55;;;3.80;99.90;;;;;;5115410;28;20040;-65
2021/12/09 11:39:47;;;;;;;9.00;5.20;;;3.90;99.90;;;;;;5114782;28;20464;-66
2021/12/09 11:42:26;;;;;;;8.82;5.45;;;3.70;99.90;;;;;;5114624;28;20479;-66
2021/12/09 11:44:52;;;;;;;10.55;5.93;;;4.10;99.90;;;;;;5096774;28;20089;-66
2021/12/09 11:47:18;;;;;;;9.25;5.00;;;3.80;99.90;;;;;;5115128;28;20127;-66
2021/12/09 11:49:44;;;;;;;9.88;5.07;;;3.80;99.90;;;;;;5115457;28;20048;-65
2021/12/09 11:52:15;;;;;;;10.90;5.30;;;3.90;99.90;;;;;;5114473;28;20185;-66
2021/12/09 11:54:49;;;;;;;12.88;5.78;;;3.80;99.90;;;;;;5114490;28;20049;-66
2021/12/09 12:13:02;;;;;;;10.18;5.63;;;3.80;99.90;;;;;;5071410;28;20103;-66
2021/12/09 12:18:23;;;;;;;12.80;5.93;;;3.80;99.90;;;;;;5114224;28;20052;-66
2021/12/09 12:24:16;;;;;;;8.75;5.47;;;3.80;99.90;;;;;;5114711;28;20476;-66
2021/12/09 12:29:58;;;;;;;15.25;7.82;;;3.80;99.90;;;;;;5114173;28;20052;-66
2021/12/09 12:33:02;;;;;;;12.90;7.13;;;3.70;99.90;;;;;;5114666;28;20044;-66
2021/12/09 12:35:49;;;;;;;11.35;5.78;;;3.80;99.90;;;;;;5114370;28;20070;-66
2021/12/09 12:41:02;;;;;;;11.18;6.25;;;5.00;99.90;;;;;;5114332;28;20047;-66
2021/12/09 12:43:40;;;;;;;12.70;6.28;;;3.70;99.90;;;;;;5114705;28;20079;-67
2021/12/09 12:49:08;;;;;;;16.17;8.77;;;3.80;99.90;;;;;;5113928;28;20062;-68
2021/12/09 12:51:52;;;;;;;16.05;9.93;;;3.80;99.90;;;;;;5114520;28;20044;-68
2021/12/09 12:54:38;;;;;;;15.23;7.50;;;3.80;99.90;;;;;;5114680;28;20108;-67
2021/12/09 12:57:14;;;;;;;14.85;6.50;;;4.30;99.90;;;;;;5099857;28;20051;-68
2021/12/09 12:59:43;;;;;;;14.40;6.05;;;3.90;99.90;;;;;;5118341;28;20174;-68
2021/12/09 13:02:30;;;;;;;12.30;6.53;;;4.50;99.90;;;;;;5117980;28;20040;-68
2021/12/09 13:05:14;;;;;;;12.07;6.65;;;3.90;99.90;;;;;;5099821;28;20109;-68
2021/12/09 13:21:36;;;;;;;15.00;7.28;;;4.00;99.90;;;;;;5117610;28;20051;-67
2021/12/09 13:24:23;;;;;;;14.18;6.15;;;4.00;99.90;;;;;;5117838;28;20044;-68
2021/12/09 13:27:18;;;;;;;9.52;6.38;;;4.10;99.90;;;;;;5118000;28;20052;-68
2021/12/09 13:30:05;;;;;;;12.65;6.32;;;4.00;99.90;;;;;;5118300;28;20048;-68
2021/12/09 13:32:47;;;;;;;10.73;5.97;;;4.00;99.90;;;;;;5118180;28;20080;-68
2021/12/09 13:35:22;;;;;;;10.77;6.82;;;4.10;99.90;;;;;;5117343;28;20051;-67
2021/12/09 13:38:35;;;;;;;12.98;6.07;;;3.60;99.90;;;;;;5117356;28;20090;-67
2021/12/09 13:49:42;;;;;;;8.65;5.82;;;4.00;99.90;;;;;;5117057;28;20452;-67
2021/12/09 13:55:25;;;;;;;11.18;6.55;;;4.40;99.90;;;;;;5098961;28;20792;-68
2021/12/09 13:57:53;;;;;;;11.15;6.03;;;4.10;99.90;;;;;;5117473;28;20055;-68
2021/12/09 14:00:19;;;;;;;14.00;6.30;;;4.00;99.90;;;;;;5116875;28;20059;-68
2021/12/09 14:02:49;;;;;;;10.70;6.03;;;4.10;99.90;;;;;;5116802;28;20387;-68
2021/12/09 14:05:16;;;;;;;12.23;6.45;;;4.10;99.90;;;;;;5116521;28;20146;-67
2021/12/09 14:07:53;;;;;;;10.32;6.07;;;4.30;99.90;;;;;;5116765;28;20487;-67
2021/12/09 14:10:24;;;;;;;13.82;5.95;;;4.60;99.90;;;;;;5116664;28;20065;-67
2021/12/09 14:12:57;;;;;;;10.70;6.47;;;4.00;99.90;;;;;;5117388;28;20074;-67